Time,TemperatureF,DewpointF,PressureIn,WindDirection,WindDirectionDegrees,WindSpeedMPH,WindSpeedGustMPH,Humidity,HourlyPrecipIn,Conditions,Clouds,dailyrainin,SolarRadiationWatts/m^2,SoftwareType,DateUTC
2013-04-20 00:01:00,68.9,67.1,29.53,NE,42,5.0,14.0,94,0.00,-RA,SCT,0.00,0.0,WeatherDisplay:10.37,2013-04-20 04:01:00,
2013-04-20 00:05:00,68.9,67.1,29.54,North,10,3.0,8.0,94,0.00,OVC,SCT,0.00,0.0,WeatherDisplay:10.37,2013-04-20 04:05:00,
2013-04-20 00:10:00,68.9,67.1,29.54,NE,44,6.0,12.0,94,0.00,OVC,SCT,0.00,0.0,WeatherDisplay:10.37,2013-04-20 04:10:00,
2013-04-20 00:15:00,68.9,67.1,29.54,ESE,121,2.0,10.0,94,0.00,OVC,SCT,0.00,0.0,WeatherDisplay:10.37,2013-04-20 04:15:00,
2013-04-20 00:20:00,68.9,67.1,29.54,SE,128,2.0,13.0,94,0.00,OVC,SCT,0.00,0.0,WeatherDisplay:10.37,2013-04-20 04:20:00,
2013-04-20 00:25:00,68.9,66.8,29.54,SE,133,3.0,13.0,93,0.00,OVC,SCT,0.00,0.0,WeatherDisplay:10.37,2013-04-20 04:25:00,
2013-04-20 00:30:00,68.9,66.8,29.54,East,101,2.0,8.0,93,0.00,OVC,SCT,0.00,0.0,WeatherDisplay:10.37,2013-04-20 04:30:00,
2013-04-20 00:40:00,68.8,67.0,29.54,SE,143,3.0,17.0,94,0.00,OVC,SCT,0.00,0.0,WeatherDisplay:10.37,2013-04-20 04:40:00,
2013-04-20 00:45:00,68.7,67.2,29.55,SE,142,2.0,13.0,95,0.00,OVC,SCT,0.00,0.0,WeatherDisplay:10.37,2013-04-20 04:45:00,
2013-04-20 00:50:00,68.1,67.6,29.54,SE,131,2.0,7.0,98,0.01,-RA,SCT,0.01,0.0,WeatherDisplay:10.37,2013-04-20 04:50:00,
2013-04-20 00:55:00,67.5,67.2,29.55,SE,130,1.0,5.0,99,0.00,-RA,SCT,0.01,0.0,WeatherDisplay:10.37,2013-04-20 04:55:00,
2013-04-20 01:00:00,67.1,66.8,29.54,ESE,112,2.0,6.0,99,0.01,-RA,SCT,0.02,0.0,WeatherDisplay:10.37,2013-04-20 05:00:00,
2013-04-20 01:10:00,66.1,65.8,29.54,SE,140,2.0,6.0,99,0.01,-RA,SCT,0.04,0.0,WeatherDisplay:10.37,2013-04-20 05:10:00,
2013-04-20 01:15:00,65.8,65.6,29.54,SE,142,2.0,8.0,99,0.00,-RA,SCT,0.04,0.0,WeatherDisplay:10.37,2013-04-20 05:15:00,
2013-04-20 01:25:00,65.5,65.2,29.54,ESE,109,1.0,5.0,99,0.00,-RA,SCT,0.05,0.0,WeatherDisplay:10.37,2013-04-20 05:25:00,
2013-04-20 01:30:00,65.3,65.0,29.53,ESE,120,2.0,7.0,99,0.01,-RA,SCT,0.06,0.0,WeatherDisplay:10.37,2013-04-20 05:30:00,
2013-04-20 01:40:00,65.1,64.8,29.53,SE,144,1.0,7.0,99,0.01,-RA,SCT,0.07,0.0,WeatherDisplay:10.37,2013-04-20 05:40:00,
2013-04-20 01:45:00,65.0,64.7,29.52,SE,124,1.0,6.0,99,0.00,-RA,SCT,0.07,0.0,WeatherDisplay:10.37,2013-04-20 05:45:00,
2013-04-20 01:55:00,64.8,64.5,29.53,SE,143,1.0,5.0,99,0.00,-RA,SCT,0.07,0.0,WeatherDisplay:10.37,2013-04-20 05:55:00,
2013-04-20 02:01:00,64.8,64.5,29.53,ESE,123,2.0,6.0,99,0.00,-RA,SCT,0.07,0.0,WeatherDisplay:10.37,2013-04-20 06:01:00,
2013-04-20 02:10:00,64.6,64.3,29.52,SE,143,1.0,4.0,99,0.00,-RA,SCT,0.07,0.0,WeatherDisplay:10.37,2013-04-20 06:10:00,
2013-04-20 02:15:00,64.4,64.1,29.51,SE,142,0.0,4.0,99,0.00,-RA,SCT,0.07,0.0,WeatherDisplay:10.37,2013-04-20 06:15:00,
2013-04-20 02:25:00,64.3,64.0,29.51,SE,138,1.0,5.0,99,0.00,SCT,SCT,0.07,0.0,WeatherDisplay:10.37,2013-04-20 06:25:00,
2013-04-20 02:30:00,64.2,63.9,29.51,SE,142,2.0,5.0,99,0.00,SCT,SCT,0.07,0.0,WeatherDisplay:10.37,2013-04-20 06:30:00,
2013-04-20 02:40:00,64.2,63.9,29.51,SE,126,2.0,6.0,99,0.00,SCT,SCT,0.07,0.0,WeatherDisplay:10.37,2013-04-20 06:40:00,
2013-04-20 02:45:00,64.0,63.8,29.51,SE,146,3.0,7.0,99,0.01,RA,SCT,0.08,0.0,WeatherDisplay:10.37,2013-04-20 06:45:00,
2013-04-20 02:55:00,64.0,63.8,29.51,SE,128,2.0,8.0,99,0.00,SCT,SCT,0.08,0.0,WeatherDisplay:10.37,2013-04-20 06:55:00,
2013-04-20 03:01:00,64.0,63.8,29.52,SSE,157,0.0,5.0,99,0.00,SCT,SCT,0.08,0.0,WeatherDisplay:10.37,2013-04-20 07:01:00,
2013-04-20 03:10:00,62.8,62.5,29.53,NNW,333,0.0,13.0,99,0.04,RA,SCT,0.12,0.0,WeatherDisplay:10.37,2013-04-20 07:10:00,
2013-04-20 03:15:00,61.2,61.0,29.53,NNW,331,0.0,5.0,99,0.01,RA,SCT,0.13,0.0,WeatherDisplay:10.37,2013-04-20 07:15:00,
2013-04-20 03:25:00,59.7,59.4,29.52,West,273,1.0,3.0,99,0.00,BKN,SCT,0.13,0.0,WeatherDisplay:10.37,2013-04-20 07:25:00,
2013-04-20 03:30:00,59.4,59.1,29.53,WNW,287,1.0,5.0,99,0.00,BKN,SCT,0.13,0.0,WeatherDisplay:10.37,2013-04-20 07:30:00,
2013-04-20 03:40:00,58.7,58.4,29.53,North,357,0.0,4.0,99,0.00,RA,SCT,0.14,0.0,WeatherDisplay:10.37,2013-04-20 07:40:00,
2013-04-20 03:45:00,58.5,58.2,29.52,North,7,2.0,6.0,99,0.00,BKN,SCT,0.14,0.0,WeatherDisplay:10.37,2013-04-20 07:45:00,
2013-04-20 03:55:00,57.2,56.9,29.54,North,356,2.0,8.0,99,0.01,-RA,SCT,0.15,0.0,WeatherDisplay:10.37,2013-04-20 07:55:00,
2013-04-20 04:01:00,56.6,56.3,29.55,NNW,343,3.0,8.0,99,0.00,-RA,SCT,0.15,0.0,WeatherDisplay:10.37,2013-04-20 08:01:00,
2013-04-20 04:10:00,55.1,54.8,29.55,North,357,5.0,9.0,99,0.00,-RA,SCT,0.15,0.0,WeatherDisplay:10.37,2013-04-20 08:10:00,
2013-04-20 04:15:00,54.7,54.4,29.56,NNE,12,2.0,9.0,99,0.01,-RA,SCT,0.17,0.0,WeatherDisplay:10.37,2013-04-20 08:15:00,
2013-04-20 04:25:00,53.8,53.5,29.56,NNW,340,3.0,11.0,99,0.00,-RA,SCT,0.18,0.0,WeatherDisplay:10.37,2013-04-20 08:25:00,
2013-04-20 04:30:00,53.3,53.1,29.56,North,351,1.0,8.0,99,0.01,-RA,SCT,0.19,0.0,WeatherDisplay:10.37,2013-04-20 08:30:00,
2013-04-20 04:40:00,52.8,52.6,29.55,North,349,2.0,6.0,99,0.00,-RA,SCT,0.20,0.0,WeatherDisplay:10.37,2013-04-20 08:40:00,
2013-04-20 04:45:00,52.6,52.3,29.56,NNW,344,1.0,7.0,99,0.01,-RA,SCT,0.21,0.0,WeatherDisplay:10.37,2013-04-20 08:45:00,
2013-04-20 04:55:00,52.2,51.9,29.56,North,353,2.0,9.0,99,0.01,-RA,SCT,0.22,0.0,WeatherDisplay:10.37,2013-04-20 08:55:00,
2013-04-20 05:01:00,51.8,51.5,29.57,NNW,329,1.0,6.0,99,0.01,-RA,SCT,0.24,0.0,WeatherDisplay:10.37,2013-04-20 09:01:00,
2013-04-20 05:10:00,51.4,51.2,29.58,WNW,284,3.0,6.0,99,0.02,-RA,SCT,0.26,0.0,WeatherDisplay:10.37,2013-04-20 09:10:00,
2013-04-20 05:15:00,51.1,50.8,29.58,North,352,1.0,7.0,99,0.01,-RA,SCT,0.27,0.0,WeatherDisplay:10.37,2013-04-20 09:15:00,
2013-04-20 05:25:00,50.7,50.4,29.58,WNW,300,0.0,4.0,99,0.01,RA,SCT,0.33,0.0,WeatherDisplay:10.37,2013-04-20 09:25:00,
2013-04-20 05:30:00,50.7,50.4,29.59,NW,320,0.0,3.0,99,0.02,RA,SCT,0.34,0.0,WeatherDisplay:10.37,2013-04-20 09:30:00,
2013-04-20 05:40:00,50.5,50.3,29.58,North,353,1.0,3.0,99,0.01,RA,SCT,0.39,0.0,WeatherDisplay:10.37,2013-04-20 09:40:00,
2013-04-20 05:45:00,50.5,50.3,29.57,NNW,348,3.0,7.0,99,0.02,RA,SCT,0.41,0.0,WeatherDisplay:10.37,2013-04-20 09:45:00,
2013-04-20 05:55:00,49.5,49.3,29.59,NW,313,0.0,4.0,99,0.01,RA,SCT,0.43,0.0,WeatherDisplay:10.37,2013-04-20 09:55:00,
2013-04-20 06:01:00,49.5,49.2,29.60,WNW,293,0.0,2.0,99,0.01,RA,SCT,0.44,0.0,WeatherDisplay:10.37,2013-04-20 10:01:00,
2013-04-20 06:10:00,48.9,48.7,29.62,West,267,0.0,2.0,99,0.00,BKN,SCT,0.44,0.0,WeatherDisplay:10.37,2013-04-20 10:10:00,
2013-04-20 06:15:00,48.9,48.7,29.64,WNW,286,0.0,3.0,99,0.01,RA,SCT,0.45,0.0,WeatherDisplay:10.37,2013-04-20 10:15:00,
2013-04-20 06:25:00,48.7,48.5,29.62,North,4,3.0,10.0,99,0.00,RA,SCT,0.46,0.0,WeatherDisplay:10.37,2013-04-20 10:25:00,
2013-04-20 06:30:00,48.5,48.3,29.63,North,10,3.0,8.0,99,0.00,BKN,SCT,0.46,0.0,WeatherDisplay:10.37,2013-04-20 10:30:00,
2013-04-20 06:40:00,47.9,47.7,29.63,NNW,336,2.0,7.0,99,0.01,RA,SCT,0.47,0.0,WeatherDisplay:10.37,2013-04-20 10:40:00,
2013-04-20 06:45:00,47.8,47.6,29.63,NW,322,1.0,6.0,99,0.00,RA,SCT,0.47,0.0,WeatherDisplay:10.37,2013-04-20 10:45:00,
2013-04-20 06:55:00,47.7,47.4,29.64,NNW,335,2.0,6.0,99,0.01,-RA,SCT,0.48,0.0,WeatherDisplay:10.37,2013-04-20 10:55:00,
2013-04-20 07:01:00,47.7,47.4,29.64,NNW,331,0.0,3.0,99,0.00,-RA,SCT,0.48,0.0,WeatherDisplay:10.37,2013-04-20 11:01:00,
2013-04-20 07:10:00,47.5,47.2,29.65,WNW,286,1.0,8.0,99,0.01,-RA,SCT,0.50,0.0,WeatherDisplay:10.37,2013-04-20 11:10:00,
2013-04-20 07:15:00,47.3,47.0,29.66,NW,307,1.0,4.0,99,0.01,-RA,SCT,0.51,0.0,WeatherDisplay:10.37,2013-04-20 11:15:00,
2013-04-20 07:25:00,47.3,47.0,29.67,NE,39,3.0,7.0,99,0.01,-RA,SCT,0.52,0.0,WeatherDisplay:10.37,2013-04-20 11:25:00,
2013-04-20 07:30:00,47.3,47.0,29.68,NNE,27,1.0,7.0,99,0.00,-RA,SCT,0.52,0.0,WeatherDisplay:10.37,2013-04-20 11:30:00,
2013-04-20 07:40:00,47.3,47.0,29.68,North,352,0.0,5.0,99,0.00,-RA,SCT,0.53,0.0,WeatherDisplay:10.37,2013-04-20 11:40:00,
2013-04-20 07:45:00,47.3,47.0,29.68,NE,45,1.0,3.0,99,0.00,-RA,SCT,0.53,0.0,WeatherDisplay:10.37,2013-04-20 11:45:00,
2013-04-20 07:55:00,47.5,47.2,29.69,WNW,290,1.0,6.0,99,0.00,-RA,SCT,0.53,0.0,WeatherDisplay:10.37,2013-04-20 11:55:00,
2013-04-20 08:01:00,47.5,47.2,29.69,NNW,344,1.0,6.0,99,0.00,-RA,SCT,0.53,0.0,WeatherDisplay:10.37,2013-04-20 12:01:00,
2013-04-20 08:10:00,47.5,47.2,29.69,NNW,340,1.0,4.0,99,0.00,-RA,SCT,0.53,0.0,WeatherDisplay:10.37,2013-04-20 12:10:00,
2013-04-20 08:16:00,47.5,47.2,29.69,North,349,1.0,3.0,99,0.00,-RA,SCT,0.53,0.0,WeatherDisplay:10.37,2013-04-20 12:16:00,
2013-04-20 08:25:00,47.3,47.0,29.70,West,264,1.0,4.0,99,0.00,OVC,SCT,0.53,0.0,WeatherDisplay:10.37,2013-04-20 12:25:00,
2013-04-20 08:31:00,47.3,47.0,29.70,NW,307,1.0,4.0,99,0.00,OVC,SCT,0.53,0.0,WeatherDisplay:10.37,2013-04-20 12:31:00,
2013-04-20 08:40:00,47.3,47.0,29.71,ENE,65,0.0,3.0,99,0.00,OVC,SCT,0.53,0.0,WeatherDisplay:10.37,2013-04-20 12:40:00,
2013-04-20 08:46:00,47.1,46.9,29.71,East,93,0.0,3.0,99,0.00,OVC,SCT,0.53,0.0,WeatherDisplay:10.37,2013-04-20 12:46:00,
2013-04-20 08:55:00,47.3,47.0,29.71,NNE,21,1.0,4.0,99,0.00,OVC,SCT,0.53,0.0,WeatherDisplay:10.37,2013-04-20 12:55:00,
2013-04-20 09:01:00,47.2,47.0,29.71,NNE,24,0.0,4.0,99,0.00,OVC,SCT,0.53,0.0,WeatherDisplay:10.37,2013-04-20 13:01:00,
2013-04-20 09:10:00,47.3,47.0,29.70,NNW,345,0.0,3.0,99,0.00,OVC,SCT,0.53,0.0,WeatherDisplay:10.37,2013-04-20 13:10:00,
2013-04-20 09:16:00,47.5,47.2,29.70,NNW,342,0.0,3.0,99,0.00,OVC,SCT,0.53,0.0,WeatherDisplay:10.37,2013-04-20 13:16:00,
2013-04-20 09:25:00,48.0,47.7,29.69,NNW,346,0.0,6.0,99,0.00,OVC,SCT,0.53,0.0,WeatherDisplay:10.37,2013-04-20 13:25:00,
2013-04-20 09:31:00,48.1,47.8,29.70,NE,42,0.0,3.0,99,0.00,OVC,SCT,0.53,0.0,WeatherDisplay:10.37,2013-04-20 13:31:00,
2013-04-20 09:40:00,48.6,47.2,29.70,North,3,1.0,4.0,95,0.00,OVC,SCT,0.53,0.0,WeatherDisplay:10.37,2013-04-20 13:40:00,
2013-04-20 09:46:00,48.6,46.9,29.70,NE,54,1.0,6.0,94,0.00,OVC,SCT,0.53,0.0,WeatherDisplay:10.37,2013-04-20 13:46:00,
2013-04-20 09:55:00,49.0,47.0,29.71,North,349,1.0,3.0,93,0.00,OVC,SCT,0.53,0.0,WeatherDisplay:10.37,2013-04-20 13:55:00,
2013-04-20 10:01:00,49.3,46.8,29.71,North,5,0.0,3.0,91,0.00,OVC,SCT,0.53,0.0,WeatherDisplay:10.37,2013-04-20 14:01:00,
2013-04-20 10:05:00,55.2,42.0,29.75,NNW,336,1.0,4.0,61,0.00,OVC,SCT,0.53,0.0,WeatherDisplay:10.37,2013-04-20 14:05:00,
2013-04-20 10:10:00,49.8,46.1,29.72,WNW,289,1.0,6.0,87,0.00,SCT,SCT,0.53,0.0,WeatherDisplay:10.37,2013-04-20 14:10:00,
2013-04-20 10:15:00,55.2,42.4,29.75,NE,50,2.0,4.0,62,0.00,OVC,SCT,0.53,0.0,WeatherDisplay:10.37,2013-04-20 14:15:00,
2013-04-20 10:16:00,50.4,46.7,29.72,North,349,2.0,6.0,87,0.00,SCT,SCT,0.53,0.0,WeatherDisplay:10.37,2013-04-20 14:16:00,
2013-04-20 10:20:00,55.9,42.7,29.75,ENE,65,2.0,4.0,61,0.00,OVC,SCT,0.53,0.0,WeatherDisplay:10.37,2013-04-20 14:20:00,
2013-04-20 10:25:00,51.5,45.2,29.73,NNW,328,2.0,8.0,79,0.00,SCT,SCT,0.53,0.0,WeatherDisplay:10.37,2013-04-20 14:25:00,
2013-04-20 10:30:00,57.4,42.3,29.75,NNE,15,1.0,8.0,57,0.00,OVC,SCT,0.53,0.0,WeatherDisplay:10.37,2013-04-20 14:30:00,
2013-04-20 10:31:00,52.3,44.6,29.73,North,0,2.0,8.0,75,0.00,SCT,SCT,0.53,0.0,WeatherDisplay:10.37,2013-04-20 14:31:00,
2013-04-20 10:35:00,56.3,40.8,29.76,NW,307,0.0,4.0,56,0.00,OVC,SCT,0.53,0.0,WeatherDisplay:10.37,2013-04-20 14:35:00,
2013-04-20 10:40:00,53.4,43.4,29.73,ENE,60,1.0,8.0,69,0.00,SCT,SCT,0.53,0.0,WeatherDisplay:10.37,2013-04-20 14:40:00,
2013-04-20 10:45:00,56.1,41.5,29.76,South,183,1.0,6.0,58,0.00,OVC,SCT,0.53,0.0,WeatherDisplay:10.37,2013-04-20 14:45:00,
2013-04-20 10:46:00,53.7,43.4,29.74,West,259,2.0,8.0,68,0.00,SCT,SCT,0.53,0.0,WeatherDisplay:10.37,2013-04-20 14:46:00,
2013-04-20 10:55:00,54.6,43.1,29.74,NNW,327,2.0,8.0,65,0.00,SCT,SCT,0.53,0.0,WeatherDisplay:10.37,2013-04-20 14:55:00,
2013-04-20 11:01:00,55.2,42.8,29.74,North,351,2.0,7.0,63,0.00,SCT,SCT,0.53,0.0,WeatherDisplay:10.37,2013-04-20 15:01:00,
2013-04-20 11:55:00,56.8,41.3,29.76,SSW,205,2.0,9.0,56,0.00,SCT,SCT,0.53,0.0,WeatherDisplay:10.37,2013-04-20 15:55:00,
2013-04-20 12:01:00,56.7,41.1,29.76,North,351,6.0,11.0,56,0.00,SCT,SCT,0.53,0.0,WeatherDisplay:10.37,2013-04-20 16:01:00,
2013-04-20 12:10:00,56.8,40.8,29.77,NNE,33,2.0,8.0,55,0.00,BKN,SCT,0.53,0.0,WeatherDisplay:10.37,2013-04-20 16:10:00,
2013-04-20 12:15:00,57.0,41.0,29.77,NNE,31,1.0,8.0,55,0.00,BKN,SCT,0.53,0.0,WeatherDisplay:10.37,2013-04-20 16:15:00,
2013-04-20 12:25:00,57.5,41.5,29.76,NE,41,2.0,12.0,55,0.00,BKN,SCT,0.53,0.0,WeatherDisplay:10.37,2013-04-20 16:25:00,
2013-04-20 12:30:00,57.7,40.2,29.77,North,8,3.0,13.0,52,0.00,BKN,SCT,0.53,0.0,WeatherDisplay:10.37,2013-04-20 16:30:00,
2013-04-20 12:40:00,58.6,41.1,29.77,NNW,343,2.0,10.0,52,0.00,BKN,SCT,0.53,0.0,WeatherDisplay:10.37,2013-04-20 16:40:00,
2013-04-20 12:46:00,58.6,39.5,29.77,North,354,3.0,9.0,49,0.00,BKN,SCT,0.53,0.0,WeatherDisplay:10.37,2013-04-20 16:46:00,
2013-04-20 13:03:00,57.9,40.4,29.77,East,92,3.0,11.0,52,0.00,BKN,SCT,0.53,0.0,WeatherDisplay:10.37,2013-04-20 17:03:00,
2013-04-20 13:11:00,58.1,40.0,29.77,East,87,2.0,7.0,51,0.00,BKN,SCT,0.53,0.0,WeatherDisplay:10.37,2013-04-20 17:11:00,
2013-04-20 13:16:00,58.3,39.7,29.76,ENE,70,3.0,13.0,50,0.00,BKN,SCT,0.53,0.0,WeatherDisplay:10.37,2013-04-20 17:16:00,
2013-04-20 13:26:00,57.4,38.9,29.77,NNE,31,3.0,11.0,50,0.00,BKN,SCT,0.53,0.0,WeatherDisplay:10.37,2013-04-20 17:26:00,
2013-04-20 13:31:00,57.4,38.9,29.78,North,351,3.0,15.0,50,0.00,BKN,SCT,0.53,0.0,WeatherDisplay:10.37,2013-04-20 17:31:00,
2013-04-20 13:41:00,57.8,38.7,29.77,NNW,333,3.0,15.0,49,0.00,BKN,SCT,0.53,0.0,WeatherDisplay:10.37,2013-04-20 17:41:00,
2013-04-20 13:51:00,57.8,38.2,29.77,SW,224,3.0,10.0,48,0.00,BKN,SCT,0.53,0.0,WeatherDisplay:10.37,2013-04-20 17:51:00,
2013-04-20 13:56:00,57.7,38.2,29.78,West,261,5.0,13.0,48,0.00,BKN,SCT,0.53,0.0,WeatherDisplay:10.37,2013-04-20 17:56:00,
2013-04-20 14:02:00,58.2,38.6,29.77,NW,315,2.0,13.0,48,0.00,BKN,SCT,0.53,0.0,WeatherDisplay:10.37,2013-04-20 18:02:00,
2013-04-20 14:16:00,58.9,37.0,29.78,NNW,347,2.0,10.0,44,0.00,BKN,SCT,0.53,0.0,WeatherDisplay:10.37,2013-04-20 18:16:00,
2013-04-20 14:26:00,58.6,36.7,29.78,East,81,2.0,8.0,44,0.00,BKN,SCT,0.53,0.0,WeatherDisplay:10.37,2013-04-20 18:26:00,
2013-04-20 14:31:00,58.5,36.6,29.78,East,91,2.0,6.0,44,0.00,BKN,SCT,0.53,0.0,WeatherDisplay:10.37,2013-04-20 18:31:00,
2013-04-20 14:41:00,58.1,37.4,29.78,North,351,2.0,6.0,46,0.00,BKN,SCT,0.53,0.0,WeatherDisplay:10.37,2013-04-20 18:41:00,
2013-04-20 14:46:00,58.1,37.4,29.79,NE,49,3.0,6.0,46,0.00,BKN,SCT,0.53,0.0,WeatherDisplay:10.37,2013-04-20 18:46:00,
2013-04-20 14:56:00,57.2,36.6,29.79,NE,38,1.0,8.0,46,0.00,BKN,SCT,0.53,0.0,WeatherDisplay:10.37,2013-04-20 18:56:00,
2013-04-20 15:02:00,57.9,37.7,29.80,ENE,67,1.0,6.0,47,0.00,BKN,SCT,0.53,0.0,WeatherDisplay:10.37,2013-04-20 19:02:00,
2013-04-20 15:11:00,58.8,36.9,29.79,ESE,106,1.0,8.0,44,0.00,BKN,SCT,0.53,0.0,WeatherDisplay:10.37,2013-04-20 19:11:00,
2013-04-20 15:16:00,59.3,37.4,29.79,ESE,103,2.0,6.0,44,0.00,BKN,SCT,0.53,0.0,WeatherDisplay:10.37,2013-04-20 19:16:00,
2013-04-20 15:26:00,59.5,35.7,29.80,NNE,24,6.0,13.0,41,0.00,BKN,SCT,0.53,0.0,WeatherDisplay:10.37,2013-04-20 19:26:00,
2013-04-20 15:31:00,58.2,35.8,29.80,North,1,2.0,7.0,43,0.00,BKN,SCT,0.53,0.0,WeatherDisplay:10.37,2013-04-20 19:31:00,
2013-04-20 15:41:00,58.2,36.9,29.80,NW,324,2.0,7.0,45,0.00,BKN,SCT,0.53,0.0,WeatherDisplay:10.37,2013-04-20 19:41:00,
2013-04-20 15:46:00,58.3,36.4,29.81,NW,314,7.0,10.0,44,0.00,BKN,SCT,0.53,0.0,WeatherDisplay:10.37,2013-04-20 19:46:00,
2013-04-20 15:56:00,58.3,35.9,29.81,NW,308,5.0,8.0,43,0.00,BKN,SCT,0.53,0.0,WeatherDisplay:10.37,2013-04-20 19:56:00,
2013-04-20 16:02:00,57.8,35.4,29.82,NW,307,2.0,8.0,43,0.00,BKN,SCT,0.53,0.0,WeatherDisplay:10.37,2013-04-20 20:02:00,
2013-04-20 16:11:00,57.9,35.5,29.81,North,4,2.0,8.0,43,0.00,BKN,SCT,0.53,0.0,WeatherDisplay:10.37,2013-04-20 20:11:00,
2013-04-20 16:16:00,57.6,35.2,29.82,SE,133,2.0,8.0,43,0.00,BKN,SCT,0.53,0.0,WeatherDisplay:10.37,2013-04-20 20:16:00,
2013-04-20 16:26:00,57.7,35.3,29.82,SSE,158,2.0,9.0,43,0.00,BKN,SCT,0.53,0.0,WeatherDisplay:10.37,2013-04-20 20:26:00,
2013-04-20 16:31:00,57.6,35.2,29.82,NE,50,2.0,8.0,43,0.00,BKN,SCT,0.53,0.0,WeatherDisplay:10.37,2013-04-20 20:31:00,
2013-04-20 16:41:00,57.4,34.5,29.83,NNE,32,2.0,5.0,42,0.00,BKN,SCT,0.53,0.0,WeatherDisplay:10.37,2013-04-20 20:41:00,
2013-04-20 16:46:00,57.7,34.2,29.83,NNE,32,2.0,5.0,41,0.00,BKN,SCT,0.53,0.0,WeatherDisplay:10.37,2013-04-20 20:46:00,
2013-04-20 16:56:00,57.5,34.6,29.83,NNE,28,3.0,10.0,42,0.00,BKN,SCT,0.53,0.0,WeatherDisplay:10.37,2013-04-20 20:56:00,
2013-04-20 17:02:00,57.4,34.5,29.84,NNE,17,5.0,8.0,42,0.00,BKN,SCT,0.53,0.0,WeatherDisplay:10.37,2013-04-20 21:02:00,
2013-04-20 17:11:00,58.6,34.3,29.85,NNW,331,2.0,8.0,40,0.00,BKN,SCT,0.53,0.0,WeatherDisplay:10.37,2013-04-20 21:11:00,
2013-04-20 17:16:00,59.0,34.1,29.85,NNW,342,5.0,16.0,39,0.00,BKN,SCT,0.53,0.0,WeatherDisplay:10.37,2013-04-20 21:16:00,
2013-04-20 17:26:00,59.6,34.6,29.85,North,357,2.0,7.0,39,0.00,BKN,SCT,0.53,0.0,WeatherDisplay:10.37,2013-04-20 21:26:00,
2013-04-20 17:31:00,59.4,34.4,29.86,NW,316,5.0,8.0,39,0.00,BKN,SCT,0.53,0.0,WeatherDisplay:10.37,2013-04-20 21:31:00,
2013-04-20 17:41:00,58.5,33.0,29.86,NNW,332,5.0,13.0,38,0.00,BKN,SCT,0.53,0.0,WeatherDisplay:10.37,2013-04-20 21:41:00,
2013-04-20 17:46:00,57.5,32.1,29.86,NW,307,2.0,13.0,38,0.00,BKN,SCT,0.53,0.0,WeatherDisplay:10.37,2013-04-20 21:46:00,
2013-04-20 17:56:00,56.9,31.6,29.87,NNE,29,3.0,8.0,38,0.00,BKN,SCT,0.53,0.0,WeatherDisplay:10.37,2013-04-20 21:56:00,
2013-04-20 18:02:00,56.5,31.2,29.88,NE,48,2.0,8.0,38,0.00,BKN,SCT,0.53,0.0,WeatherDisplay:10.37,2013-04-20 22:02:00,
2013-04-20 18:11:00,56.4,31.8,29.88,NNW,341,5.0,13.0,39,0.00,FEW,SCT,0.53,0.0,WeatherDisplay:10.37,2013-04-20 22:11:00,
2013-04-20 18:16:00,56.2,31.5,29.89,NW,326,2.0,13.0,39,0.00,FEW,SCT,0.53,0.0,WeatherDisplay:10.37,2013-04-20 22:16:00,
2013-04-20 18:26:00,55.9,31.9,29.88,NNW,329,5.0,13.0,40,0.00,FEW,SCT,0.53,0.0,WeatherDisplay:10.37,2013-04-20 22:26:00,
2013-04-20 18:32:00,55.6,31.6,29.89,NW,320,1.0,13.0,40,0.00,FEW,SCT,0.53,0.0,WeatherDisplay:10.37,2013-04-20 22:32:00,
2013-04-20 18:41:00,55.1,31.8,29.90,WSW,250,2.0,7.0,41,0.00,FEW,SCT,0.53,0.0,WeatherDisplay:10.37,2013-04-20 22:41:00,
2013-04-20 18:46:00,54.9,31.6,29.90,NW,307,5.0,13.0,41,0.00,FEW,SCT,0.53,0.0,WeatherDisplay:10.37,2013-04-20 22:46:00,
2013-04-20 18:56:00,54.5,30.6,29.91,North,356,3.0,15.0,40,0.00,FEW,SCT,0.53,0.0,WeatherDisplay:10.37,2013-04-20 22:56:00,
2013-04-20 19:02:00,54.5,30.6,29.92,NNW,340,6.0,15.0,40,0.00,FEW,SCT,0.53,0.0,WeatherDisplay:10.37,2013-04-20 23:02:00,
2013-04-20 19:11:00,53.8,31.8,29.93,NNW,345,2.0,13.0,43,0.00,SCT,SCT,0.53,0.0,WeatherDisplay:10.37,2013-04-20 23:11:00,
2013-04-20 19:16:00,53.6,31.0,29.93,NNW,335,2.0,9.0,42,0.00,SCT,SCT,0.53,0.0,WeatherDisplay:10.37,2013-04-20 23:16:00,
2013-04-20 19:26:00,53.0,30.5,29.93,NNW,333,1.0,9.0,42,0.00,SCT,SCT,0.53,0.0,WeatherDisplay:10.37,2013-04-20 23:26:00,
2013-04-20 19:31:00,52.6,30.8,29.94,NW,322,2.0,9.0,43,0.00,SCT,SCT,0.53,0.0,WeatherDisplay:10.37,2013-04-20 23:31:00,
2013-04-20 19:41:00,52.1,30.2,29.94,North,356,3.0,8.0,43,0.00,SCT,SCT,0.53,0.0,WeatherDisplay:10.37,2013-04-20 23:41:00,
2013-04-20 19:46:00,51.8,30.5,29.95,North,0,1.0,7.0,44,0.00,SCT,SCT,0.53,0.0,WeatherDisplay:10.37,2013-04-20 23:46:00,
2013-04-20 20:02:00,51.0,30.4,29.96,North,357,1.0,6.0,45,0.00,SCT,SCT,0.53,0.0,WeatherDisplay:10.37,2013-04-21 00:02:00,
2013-04-20 20:11:00,50.7,30.1,29.97,NNW,333,2.0,8.0,45,0.00,SCT,SCT,0.53,0.0,WeatherDisplay:10.37,2013-04-21 00:11:00,
2013-04-20 20:16:00,50.6,29.4,29.98,NNE,14,2.0,8.0,44,0.00,SCT,SCT,0.53,0.0,WeatherDisplay:10.37,2013-04-21 00:16:00,
2013-04-20 20:26:00,50.3,29.2,29.99,SW,221,1.0,7.0,44,0.00,SCT,SCT,0.53,0.0,WeatherDisplay:10.37,2013-04-21 00:26:00,
2013-04-20 20:32:00,50.0,29.4,30.00,SW,220,0.0,7.0,45,0.00,SCT,SCT,0.53,0.0,WeatherDisplay:10.37,2013-04-21 00:32:00,
2013-04-20 20:46:00,48.6,29.3,30.01,NNW,337,1.0,5.0,47,0.00,SCT,SCT,0.53,0.0,WeatherDisplay:10.37,2013-04-21 00:46:00,
2013-04-20 20:56:00,48.5,28.1,30.01,NNW,330,3.0,7.0,45,0.00,SCT,SCT,0.53,0.0,WeatherDisplay:10.37,2013-04-21 00:56:00,
2013-04-20 21:02:00,48.6,28.7,30.02,NNW,333,3.0,9.0,46,0.00,SCT,SCT,0.53,0.0,WeatherDisplay:10.37,2013-04-21 01:02:00,
2013-04-20 21:11:00,48.6,27.6,30.02,NNW,345,2.0,15.0,44,0.00,CLR,SCT,0.53,0.0,WeatherDisplay:10.37,2013-04-21 01:11:00,
2013-04-20 21:16:00,48.6,27.6,30.03,NNW,344,2.0,15.0,44,0.00,CLR,SCT,0.53,0.0,WeatherDisplay:10.37,2013-04-21 01:16:00,
2013-04-20 21:26:00,48.2,28.4,30.04,WNW,300,0.0,2.0,46,0.00,CLR,SCT,0.53,0.0,WeatherDisplay:10.37,2013-04-21 01:26:00,
2013-04-20 21:31:00,47.8,28.0,30.04,NW,323,1.0,3.0,46,0.00,CLR,SCT,0.53,0.0,WeatherDisplay:10.37,2013-04-21 01:31:00,
2013-04-20 21:41:00,47.3,28.1,30.05,ESE,120,1.0,5.0,47,0.00,CLR,SCT,0.53,0.0,WeatherDisplay:10.37,2013-04-21 01:41:00,
2013-04-20 21:46:00,47.3,28.1,30.05,South,173,1.0,5.0,47,0.00,CLR,SCT,0.53,0.0,WeatherDisplay:10.37,2013-04-21 01:46:00,
2013-04-20 21:56:00,47.1,27.9,30.06,ESE,109,1.0,5.0,47,0.00,CLR,SCT,0.53,0.0,WeatherDisplay:10.37,2013-04-21 01:56:00,
2013-04-20 22:02:00,47.0,27.8,30.06,North,5,2.0,7.0,47,0.00,CLR,SCT,0.53,0.0,WeatherDisplay:10.37,2013-04-21 02:02:00,
2013-04-20 22:11:00,46.5,27.9,30.06,NW,321,1.0,5.0,48,0.00,CLR,SCT,0.53,0.0,WeatherDisplay:10.37,2013-04-21 02:11:00,
2013-04-20 22:16:00,45.9,27.8,30.07,NW,320,1.0,9.0,49,0.00,CLR,SCT,0.53,0.0,WeatherDisplay:10.37,2013-04-21 02:16:00,
2013-04-20 22:21:00,45.8,28.2,30.07,NNW,335,1.0,9.0,50,0.00,CLR,SCT,0.53,0.0,WeatherDisplay:10.37,2013-04-21 02:21:00,
2013-04-20 22:31:00,45.3,27.8,30.07,North,354,1.0,6.0,50,0.00,CLR,SCT,0.53,0.0,WeatherDisplay:10.37,2013-04-21 02:31:00,
2013-04-20 22:41:00,45.5,26.9,30.09,NE,47,2.0,5.0,48,0.00,CLR,SCT,0.53,0.0,WeatherDisplay:10.37,2013-04-21 02:41:00,
2013-04-20 22:46:00,45.5,26.9,30.09,NE,50,2.0,8.0,48,0.00,CLR,SCT,0.53,0.0,WeatherDisplay:10.37,2013-04-21 02:46:00,
2013-04-20 23:02:00,45.3,26.2,30.10,NNW,339,2.0,7.0,47,0.00,CLR,SCT,0.53,0.0,WeatherDisplay:10.37,2013-04-21 03:02:00,
2013-04-20 23:11:00,44.9,26.4,30.10,WNW,300,1.0,4.0,48,0.00,CLR,SCT,0.53,0.0,WeatherDisplay:10.37,2013-04-21 03:11:00,
2013-04-20 23:16:00,44.4,26.5,30.10,WNW,287,0.0,3.0,49,0.00,CLR,SCT,0.53,0.0,WeatherDisplay:10.37,2013-04-21 03:16:00,
2013-04-20 23:26:00,43.9,26.4,30.10,NW,307,0.0,2.0,50,0.00,CLR,SCT,0.53,0.0,WeatherDisplay:10.37,2013-04-21 03:26:00,
2013-04-20 23:32:00,43.6,27.1,30.11,NW,315,0.0,2.0,52,0.00,CLR,SCT,0.53,0.0,WeatherDisplay:10.37,2013-04-21 03:32:00,
2013-04-20 23:41:00,43.2,26.2,30.12,NNW,344,3.0,10.0,51,0.00,CLR,SCT,0.53,0.0,WeatherDisplay:10.37,2013-04-21 03:41:00,
2013-04-20 23:46:00,43.3,24.9,30.12,NNW,338,1.0,10.0,48,0.00,CLR,SCT,0.53,0.0,WeatherDisplay:10.37,2013-04-21 03:46:00,
2013-04-20 23:56:00,43.1,24.3,30.13,NW,315,1.0,6.0,47,0.00,CLR,SCT,0.53,0.0,WeatherDisplay:10.37,2013-04-21 03:56:00,